sensor_id;sensor_type;location;lat;lon;timestamp;pressure;altitude;pressure_sealevel;temperature;humidity
50302;BME280;36550;50.472;19.744;2024-02-21T00:00:57;98718.83;;;4.17;89.43
50302;BME280;36550;50.472;19.744;2024-02-21T00:03:42;98713.94;;;4.22;89.53
50302;BME280;36550;50.472;19.744;2024-02-21T00:06:26;98709.62;;;4.27;89.63
50302;BME280;36550;50.472;19.744;2024-02-21T00:09:10;98705.70;;;4.29;89.72
50302;BME280;36550;50.472;19.744;2024-02-21T00:11:54;98702.86;;;4.27;89.53
50302;BME280;36550;50.472;19.744;2024-02-21T00:14:38;98701.02;;;4.23;89.19
50302;BME280;36550;50.472;19.744;2024-02-21T00:17:22;98697.76;;;4.17;89.15
50302;BME280;36550;50.472;19.744;2024-02-21T00:20:07;98694.98;;;4.09;89.18
50302;BME280;36550;50.472;19.744;2024-02-21T00:22:51;98697.31;;;3.99;88.86
50302;BME280;36550;50.472;19.744;2024-02-21T00:25:36;98691.55;;;3.89;88.90
50302;BME280;36550;50.472;19.744;2024-02-21T00:28:20;98692.14;;;3.79;88.89
50302;BME280;36550;50.472;19.744;2024-02-21T00:31:04;98692.05;;;3.71;89.19
50302;BME280;36550;50.472;19.744;2024-02-21T00:37:17;98683.10;;;3.55;89.27
50302;BME280;36550;50.472;19.744;2024-02-21T00:40:01;98677.88;;;3.48;89.53
50302;BME280;36550;50.472;19.744;2024-02-21T00:42:46;98675.52;;;3.42;89.43
50302;BME280;36550;50.472;19.744;2024-02-21T00:45:30;98673.77;;;3.38;89.75
50302;BME280;36550;50.472;19.744;2024-02-21T00:48:14;98669.38;;;3.34;89.78
50302;BME280;36550;50.472;19.744;2024-02-21T00:50:58;98668.98;;;3.30;89.56
50302;BME280;36550;50.472;19.744;2024-02-21T00:53:42;98668.14;;;3.26;89.60
50302;BME280;36550;50.472;19.744;2024-02-21T00:56:27;98662.70;;;3.22;89.83
50302;BME280;36550;50.472;19.744;2024-02-21T00:59:11;98661.52;;;3.19;90.49
50302;BME280;36550;50.472;19.744;2024-02-21T01:01:55;98658.26;;;3.16;90.14
50302;BME280;36550;50.472;19.744;2024-02-21T01:04:40;98648.95;;;3.11;90.29
50302;BME280;36550;50.472;19.744;2024-02-21T01:07:24;98650.89;;;3.07;91.08
50302;BME280;36550;50.472;19.744;2024-02-21T01:10:09;98645.11;;;3.03;90.48
50302;BME280;36550;50.472;19.744;2024-02-21T01:12:53;98642.29;;;3.01;90.45
50302;BME280;36550;50.472;19.744;2024-02-21T01:15:37;98642.13;;;3.01;91.17
50302;BME280;36550;50.472;19.744;2024-02-21T01:18:21;98640.80;;;3.02;91.48
50302;BME280;36550;50.472;19.744;2024-02-21T01:21:06;98638.37;;;3.05;91.43
50302;BME280;36550;50.472;19.744;2024-02-21T01:23:51;98635.56;;;3.08;92.24
50302;BME280;36550;50.472;19.744;2024-02-21T01:26:35;98637.65;;;3.14;92.08
50302;BME280;36550;50.472;19.744;2024-02-21T01:29:19;98634.79;;;3.21;92.22
50302;BME280;36550;50.472;19.744;2024-02-21T01:32:03;98629.39;;;3.28;91.81
50302;BME280;36550;50.472;19.744;2024-02-21T01:34:48;98628.81;;;3.33;91.66
50302;BME280;36550;50.472;19.744;2024-02-21T01:37:32;98627.61;;;3.38;91.72
50302;BME280;36550;50.472;19.744;2024-02-21T01:40:16;98629.31;;;3.41;91.70
50302;BME280;36550;50.472;19.744;2024-02-21T01:43:01;98624.80;;;3.46;91.61
50302;BME280;36550;50.472;19.744;2024-02-21T01:45:55;98614.56;;;3.49;91.68
50302;BME280;36550;50.472;19.744;2024-02-21T01:48:40;98624.44;;;3.52;91.81
50302;BME280;36550;50.472;19.744;2024-02-21T01:51:24;98625.11;;;3.57;91.94
50302;BME280;36550;50.472;19.744;2024-02-21T01:54:09;98622.42;;;3.61;92.10
50302;BME280;36550;50.472;19.744;2024-02-21T01:56:54;98615.35;;;3.65;93.00
50302;BME280;36550;50.472;19.744;2024-02-21T01:59:38;98605.32;;;3.70;92.63
50302;BME280;36550;50.472;19.744;2024-02-21T02:02:24;98606.20;;;3.73;92.61
50302;BME280;36550;50.472;19.744;2024-02-21T02:05:08;98606.59;;;3.77;92.79
50302;BME280;36550;50.472;19.744;2024-02-21T02:07:53;98606.13;;;3.81;93.03
50302;BME280;36550;50.472;19.744;2024-02-21T02:10:37;98602.34;;;3.84;92.68
50302;BME280;36550;50.472;19.744;2024-02-21T02:13:22;98602.10;;;3.86;92.51
50302;BME280;36550;50.472;19.744;2024-02-21T02:16:06;98596.27;;;3.89;92.48
50302;BME280;36550;50.472;19.744;2024-02-21T02:18:50;98593.10;;;3.91;92.57
50302;BME280;36550;50.472;19.744;2024-02-21T02:21:39;98596.79;;;3.91;92.64
50302;BME280;36550;50.472;19.744;2024-02-21T02:24:26;98599.16;;;3.92;92.79
50302;BME280;36550;50.472;19.744;2024-02-21T02:27:10;98600.52;;;3.94;92.90
50302;BME280;36550;50.472;19.744;2024-02-21T02:29:54;98593.23;;;3.95;92.91
50302;BME280;36550;50.472;19.744;2024-02-21T02:32:38;98596.83;;;3.96;93.06
50302;BME280;36550;50.472;19.744;2024-02-21T02:35:22;98599.36;;;3.98;93.15
50302;BME280;36550;50.472;19.744;2024-02-21T02:38:06;98593.27;;;4.02;93.08
50302;BME280;36550;50.472;19.744;2024-02-21T02:40:50;98586.35;;;4.07;93.04
50302;BME280;36550;50.472;19.744;2024-02-21T02:43:34;98588.96;;;4.11;93.14
50302;BME280;36550;50.472;19.744;2024-02-21T02:46:20;98590.65;;;4.15;93.58
50302;BME280;36550;50.472;19.744;2024-02-21T02:49:05;98588.67;;;4.18;93.23
50302;BME280;36550;50.472;19.744;2024-02-21T02:51:49;98583.58;;;4.20;93.22
50302;BME280;36550;50.472;19.744;2024-02-21T02:54:34;98581.14;;;4.23;93.24
50302;BME280;36550;50.472;19.744;2024-02-21T02:57:18;98578.58;;;4.26;93.27
50302;BME280;36550;50.472;19.744;2024-02-21T03:00:03;98579.64;;;4.31;93.29
50302;BME280;36550;50.472;19.744;2024-02-21T03:02:49;98580.50;;;4.35;93.25
50302;BME280;36550;50.472;19.744;2024-02-21T03:05:33;98582.06;;;4.38;93.04
50302;BME280;36550;50.472;19.744;2024-02-21T03:08:17;98579.07;;;4.38;92.90
50302;BME280;36550;50.472;19.744;2024-02-21T03:11:01;98581.32;;;4.37;93.08
50302;BME280;36550;50.472;19.744;2024-02-21T03:13:46;98577.81;;;4.37;93.34
50302;BME280;36550;50.472;19.744;2024-02-21T03:16:30;98576.96;;;4.37;93.13
50302;BME280;36550;50.472;19.744;2024-02-21T03:19:14;98576.89;;;4.36;92.89
50302;BME280;36550;50.472;19.744;2024-02-21T03:21:58;98573.27;;;4.36;92.64
50302;BME280;36550;50.472;19.744;2024-02-21T03:24:42;98578.30;;;4.34;92.53
50302;BME280;36550;50.472;19.744;2024-02-21T03:27:26;98580.77;;;4.34;92.49
50302;BME280;36550;50.472;19.744;2024-02-21T03:30:11;98579.40;;;4.37;92.74
50302;BME280;36550;50.472;19.744;2024-02-21T03:32:56;98579.55;;;4.38;92.62
50302;BME280;36550;50.472;19.744;2024-02-21T03:35:40;98579.11;;;4.39;92.62
50302;BME280;36550;50.472;19.744;2024-02-21T03:38:24;98575.51;;;4.39;92.63
50302;BME280;36550;50.472;19.744;2024-02-21T03:41:09;98576.77;;;4.40;92.74
50302;BME280;36550;50.472;19.744;2024-02-21T03:43:53;98573.27;;;4.42;92.83
50302;BME280;36550;50.472;19.744;2024-02-21T03:46:37;98571.52;;;4.45;92.67
50302;BME280;36550;50.472;19.744;2024-02-21T03:49:21;98575.65;;;4.47;92.61
50302;BME280;36550;50.472;19.744;2024-02-21T03:52:06;98573.74;;;4.49;92.64
50302;BME280;36550;50.472;19.744;2024-02-21T03:54:52;98573.14;;;4.50;92.65
50302;BME280;36550;50.472;19.744;2024-02-21T03:57:36;98571.94;;;4.50;92.65
50302;BME280;36550;50.472;19.744;2024-02-21T04:00:20;98578.48;;;4.51;92.86
50302;BME280;36550;50.472;19.744;2024-02-21T04:03:05;98580.50;;;4.53;93.00
50302;BME280;36550;50.472;19.744;2024-02-21T04:05:50;98587.13;;;4.55;93.11
50302;BME280;36550;50.472;19.744;2024-02-21T04:08:34;98581.23;;;4.58;93.16
50302;BME280;36550;50.472;19.744;2024-02-21T04:11:18;98580.73;;;4.61;92.99
50302;BME280;36550;50.472;19.744;2024-02-21T04:14:02;98579.64;;;4.66;92.93
50302;BME280;36550;50.472;19.744;2024-02-21T04:16:47;98575.14;;;4.70;92.81
50302;BME280;36550;50.472;19.744;2024-02-21T04:19:31;98569.43;;;4.72;92.65
50302;BME280;36550;50.472;19.744;2024-02-21T04:22:16;98571.27;;;4.71;92.68
50302;BME280;36550;50.472;19.744;2024-02-21T04:25:00;98572.55;;;4.69;92.84
50302;BME280;36550;50.472;19.744;2024-02-21T04:27:44;98571.92;;;4.67;92.77
50302;BME280;36550;50.472;19.744;2024-02-21T04:30:29;98570.27;;;4.68;92.87
50302;BME280;36550;50.472;19.744;2024-02-21T04:33:13;98569.79;;;4.67;92.83
50302;BME280;36550;50.472;19.744;2024-02-21T04:35:57;98567.20;;;4.69;92.66
50302;BME280;36550;50.472;19.744;2024-02-21T04:38:42;98566.07;;;4.68;92.57
50302;BME280;36550;50.472;19.744;2024-02-21T04:41:26;98557.43;;;4.65;92.94
50302;BME280;36550;50.472;19.744;2024-02-21T04:44:10;98559.58;;;4.61;92.89
50302;BME280;36550;50.472;19.744;2024-02-21T04:46:54;98556.81;;;4.57;93.04
50302;BME280;36550;50.472;19.744;2024-02-21T04:49:39;98556.34;;;4.56;93.01
50302;BME280;36550;50.472;19.744;2024-02-21T04:52:23;98552.04;;;4.55;92.74
50302;BME280;36550;50.472;19.744;2024-02-21T04:55:07;98548.89;;;4.52;92.75
50302;BME280;36550;50.472;19.744;2024-02-21T04:57:52;98545.09;;;4.49;92.81
50302;BME280;36550;50.472;19.744;2024-02-21T05:00:36;98542.85;;;4.46;93.17
50302;BME280;36550;50.472;19.744;2024-02-21T05:03:20;98537.39;;;4.43;93.53
50302;BME280;36550;50.472;19.744;2024-02-21T05:06:05;98530.98;;;4.42;93.12
50302;BME280;36550;50.472;19.744;2024-02-21T05:08:49;98535.17;;;4.42;93.04
50302;BME280;36550;50.472;19.744;2024-02-21T05:11:34;98534.40;;;4.41;93.05
50302;BME280;36550;50.472;19.744;2024-02-21T05:14:18;98535.34;;;4.40;92.92
50302;BME280;36550;50.472;19.744;2024-02-21T05:17:04;98531.41;;;4.36;93.32
50302;BME280;36550;50.472;19.744;2024-02-21T05:19:48;98533.80;;;4.31;92.96
50302;BME280;36550;50.472;19.744;2024-02-21T05:22:32;98533.48;;;4.28;93.14
50302;BME280;36550;50.472;19.744;2024-02-21T05:25:16;98529.10;;;4.26;93.68
50302;BME280;36550;50.472;19.744;2024-02-21T05:28:00;98534.41;;;4.26;93.43
50302;BME280;36550;50.472;19.744;2024-02-21T05:30:47;98531.42;;;4.27;93.22
50302;BME280;36550;50.472;19.744;2024-02-21T05:33:31;98531.41;;;4.25;93.63
50302;BME280;36550;50.472;19.744;2024-02-21T05:36:15;98529.48;;;4.25;93.43
50302;BME280;36550;50.472;19.744;2024-02-21T05:38:59;98524.04;;;4.24;93.24
50302;BME280;36550;50.472;19.744;2024-02-21T05:41:44;98525.60;;;4.24;93.22
50302;BME280;36550;50.472;19.744;2024-02-21T05:44:28;98522.43;;;4.23;93.10
50302;BME280;36550;50.472;19.744;2024-02-21T05:47:12;98517.98;;;4.20;93.12
50302;BME280;36550;50.472;19.744;2024-02-21T05:49:59;98517.15;;;4.17;92.93
50302;BME280;36550;50.472;19.744;2024-02-21T05:52:43;98511.79;;;4.16;92.86
50302;BME280;36550;50.472;19.744;2024-02-21T05:55:28;98511.87;;;4.13;92.78
50302;BME280;36550;50.472;19.744;2024-02-21T05:58:12;98510.70;;;4.10;92.81
50302;BME280;36550;50.472;19.744;2024-02-21T06:00:57;98520.27;;;4.05;92.72
50302;BME280;36550;50.472;19.744;2024-02-21T06:03:41;98527.09;;;4.00;92.74
50302;BME280;36550;50.472;19.744;2024-02-21T06:06:25;98528.53;;;3.98;92.77
50302;BME280;36550;50.472;19.744;2024-02-21T06:09:09;98524.42;;;3.99;92.97
50302;BME280;36550;50.472;19.744;2024-02-21T06:11:53;98519.58;;;4.03;93.18
50302;BME280;36550;50.472;19.744;2024-02-21T06:14:38;98516.88;;;4.09;93.23
50302;BME280;36550;50.472;19.744;2024-02-21T06:17:22;98516.33;;;4.15;93.17
50302;BME280;36550;50.472;19.744;2024-02-21T06:20:07;98514.80;;;4.21;93.34
50302;BME280;36550;50.472;19.744;2024-02-21T06:22:51;98508.36;;;4.27;93.27
50302;BME280;36550;50.472;19.744;2024-02-21T06:25:35;98509.98;;;4.32;93.28
50302;BME280;36550;50.472;19.744;2024-02-21T06:28:19;98513.94;;;4.38;93.33
50302;BME280;36550;50.472;19.744;2024-02-21T06:31:04;98513.22;;;4.46;93.38
50302;BME280;36550;50.472;19.744;2024-02-21T06:33:48;98511.98;;;4.52;93.44
50302;BME280;36550;50.472;19.744;2024-02-21T06:36:32;98501.51;;;4.58;93.40
50302;BME280;36550;50.472;19.744;2024-02-21T06:39:17;98503.85;;;4.62;93.35
50302;BME280;36550;50.472;19.744;2024-02-21T06:42:01;98505.31;;;4.61;93.26
50302;BME280;36550;50.472;19.744;2024-02-21T06:44:45;98505.17;;;4.62;93.10
50302;BME280;36550;50.472;19.744;2024-02-21T06:47:30;98505.34;;;4.64;93.13
50302;BME280;36550;50.472;19.744;2024-02-21T06:50:15;98506.55;;;4.68;93.04
50302;BME280;36550;50.472;19.744;2024-02-21T06:52:59;98511.72;;;4.76;93.14
50302;BME280;36550;50.472;19.744;2024-02-21T06:55:44;98514.08;;;4.88;93.28
50302;BME280;36550;50.472;19.744;2024-02-21T06:58:28;98511.48;;;5.01;93.24
50302;BME280;36550;50.472;19.744;2024-02-21T07:01:12;98511.41;;;5.14;93.11
50302;BME280;36550;50.472;19.744;2024-02-21T07:03:56;98516.53;;;5.28;92.97
50302;BME280;36550;50.472;19.744;2024-02-21T07:06:40;98518.29;;;5.42;92.85
50302;BME280;36550;50.472;19.744;2024-02-21T07:09:25;98517.55;;;5.55;92.50
50302;BME280;36550;50.472;19.744;2024-02-21T07:12:09;98512.25;;;5.66;92.21
50302;BME280;36550;50.472;19.744;2024-02-21T07:14:53;98508.65;;;5.78;91.87
50302;BME280;36550;50.472;19.744;2024-02-21T07:17:38;98512.13;;;5.89;91.94
50302;BME280;36550;50.472;19.744;2024-02-21T07:20:22;98511.29;;;5.99;91.80
50302;BME280;36550;50.472;19.744;2024-02-21T07:23:09;98508.77;;;6.07;91.60
50302;BME280;36550;50.472;19.744;2024-02-21T07:25:54;98507.50;;;6.18;91.60
50302;BME280;36550;50.472;19.744;2024-02-21T07:28:38;98501.52;;;6.24;91.22
50302;BME280;36550;50.472;19.744;2024-02-21T07:31:22;98507.95;;;6.31;91.19
50302;BME280;36550;50.472;19.744;2024-02-21T07:34:06;98506.05;;;6.35;90.80
50302;BME280;36550;50.472;19.744;2024-02-21T07:36:50;98505.16;;;6.35;90.68
50302;BME280;36550;50.472;19.744;2024-02-21T07:39:38;98505.45;;;6.37;90.50
50302;BME280;36550;50.472;19.744;2024-02-21T07:42:22;98507.46;;;6.38;90.16
50302;BME280;36550;50.472;19.744;2024-02-21T07:45:09;98506.65;;;6.39;89.95
50302;BME280;36550;50.472;19.744;2024-02-21T07:47:54;98507.27;;;6.40;89.90
50302;BME280;36550;50.472;19.744;2024-02-21T07:50:39;98506.46;;;6.39;89.86
50302;BME280;36550;50.472;19.744;2024-02-21T07:53:22;98505.27;;;6.42;89.81
50302;BME280;36550;50.472;19.744;2024-02-21T07:56:07;98507.92;;;6.45;89.92
50302;BME280;36550;50.472;19.744;2024-02-21T07:58:51;98504.89;;;6.47;89.70
50302;BME280;36550;50.472;19.744;2024-02-21T08:01:35;98502.84;;;6.46;89.60
50302;BME280;36550;50.472;19.744;2024-02-21T08:04:19;98499.80;;;6.49;89.75
50302;BME280;36550;50.472;19.744;2024-02-21T08:07:03;98498.91;;;6.56;89.43
50302;BME280;36550;50.472;19.744;2024-02-21T08:09:48;98496.48;;;6.65;89.41
50302;BME280;36550;50.472;19.744;2024-02-21T08:12:32;98488.43;;;6.74;89.29
50302;BME280;36550;50.472;19.744;2024-02-21T08:15:16;98484.99;;;6.80;89.01
50302;BME280;36550;50.472;19.744;2024-02-21T08:18:00;98482.96;;;6.84;88.26
50302;BME280;36550;50.472;19.744;2024-02-21T08:20:47;98478.43;;;6.94;88.60
50302;BME280;36550;50.472;19.744;2024-02-21T08:23:32;98475.75;;;7.04;88.75
50302;BME280;36550;50.472;19.744;2024-02-21T08:26:16;98474.11;;;7.10;88.69
50302;BME280;36550;50.472;19.744;2024-02-21T08:29:00;98472.04;;;7.11;88.15
50302;BME280;36550;50.472;19.744;2024-02-21T08:31:44;98471.66;;;7.06;87.28
50302;BME280;36550;50.472;19.744;2024-02-21T08:34:28;98468.65;;;7.04;87.23
50302;BME280;36550;50.472;19.744;2024-02-21T08:37:14;98465.60;;;7.01;87.13
50302;BME280;36550;50.472;19.744;2024-02-21T08:39:58;98459.73;;;6.97;87.25
50302;BME280;36550;50.472;19.744;2024-02-21T08:42:42;98458.20;;;6.93;86.85
50302;BME280;36550;50.472;19.744;2024-02-21T08:45:26;98458.80;;;6.91;86.68
50302;BME280;36550;50.472;19.744;2024-02-21T08:48:09;98453.98;;;6.93;86.91
50302;BME280;36550;50.472;19.744;2024-02-21T08:50:53;98450.19;;;6.97;86.66
50302;BME280;36550;50.472;19.744;2024-02-21T08:53:38;98446.48;;;7.03;86.85
50302;BME280;36550;50.472;19.744;2024-02-21T08:56:22;98447.17;;;7.13;87.19
50302;BME280;36550;50.472;19.744;2024-02-21T08:59:06;98443.80;;;7.25;87.03
50302;BME280;36550;50.472;19.744;2024-02-21T09:01:51;98442.66;;;7.32;86.58
50302;BME280;36550;50.472;19.744;2024-02-21T09:04:36;98438.92;;;7.40;86.52
50302;BME280;36550;50.472;19.744;2024-02-21T09:07:19;98440.19;;;7.53;86.96
50302;BME280;36550;50.472;19.744;2024-02-21T09:10:04;98441.09;;;7.64;86.78
50302;BME280;36550;50.472;19.744;2024-02-21T09:12:49;98436.45;;;7.74;86.46
50302;BME280;36550;50.472;19.744;2024-02-21T09:15:34;98441.27;;;7.79;86.03
50302;BME280;36550;50.472;19.744;2024-02-21T09:18:18;98441.63;;;7.88;85.17
50302;BME280;36550;50.472;19.744;2024-02-21T09:21:02;98438.88;;;7.96;85.41
50302;BME280;36550;50.472;19.744;2024-02-21T09:23:47;98439.41;;;8.04;85.43
50302;BME280;36550;50.472;19.744;2024-02-21T09:26:31;98441.55;;;8.11;84.96
50302;BME280;36550;50.472;19.744;2024-02-21T09:29:15;98443.15;;;8.15;84.62
50302;BME280;36550;50.472;19.744;2024-02-21T09:32:00;98438.33;;;8.24;84.76
50302;BME280;36550;50.472;19.744;2024-02-21T09:34:46;98435.19;;;8.33;84.49
50302;BME280;36550;50.472;19.744;2024-02-21T09:37:31;98432.73;;;8.33;83.78
50302;BME280;36550;50.472;19.744;2024-02-21T09:40:15;98432.29;;;8.32;83.91
50302;BME280;36550;50.472;19.744;2024-02-21T09:43:04;98432.29;;;8.33;83.51
50302;BME280;36550;50.472;19.744;2024-02-21T09:45:54;98433.86;;;8.39;83.53
50302;BME280;36550;50.472;19.744;2024-02-21T09:51:32;98432.20;;;8.53;83.50
50302;BME280;36550;50.472;19.744;2024-02-21T09:54:18;98428.41;;;8.53;83.06
50302;BME280;36550;50.472;19.744;2024-02-21T09:57:04;98429.59;;;8.55;83.34
50302;BME280;36550;50.472;19.744;2024-02-21T09:59:49;98436.13;;;8.62;83.35
50302;BME280;36550;50.472;19.744;2024-02-21T10:02:34;98434.16;;;8.70;83.19
50302;BME280;36550;50.472;19.744;2024-02-21T10:05:19;98433.38;;;8.71;82.25
50302;BME280;36550;50.472;19.744;2024-02-21T10:08:04;98429.64;;;8.77;82.58
50302;BME280;36550;50.472;19.744;2024-02-21T10:10:48;98426.36;;;8.86;81.90
50302;BME280;36550;50.472;19.744;2024-02-21T10:13:33;98422.39;;;9.04;82.40
50302;BME280;36550;50.472;19.744;2024-02-21T10:16:17;98417.23;;;9.25;81.97
50302;BME280;36550;50.472;19.744;2024-02-21T10:19:01;98412.59;;;9.38;81.23
50302;BME280;36550;50.472;19.744;2024-02-21T10:22:09;98414.47;;;9.52;81.49
50302;BME280;36550;50.472;19.744;2024-02-21T10:24:53;98416.58;;;9.69;81.39
50302;BME280;36550;50.472;19.744;2024-02-21T10:27:39;98417.36;;;9.84;80.67
50302;BME280;36550;50.472;19.744;2024-02-21T10:30:23;98417.95;;;9.92;80.19
50302;BME280;36550;50.472;19.744;2024-02-21T10:33:07;98420.00;;;9.99;79.82
50302;BME280;36550;50.472;19.744;2024-02-21T10:35:51;98414.29;;;10.09;79.33
50302;BME280;36550;50.472;19.744;2024-02-21T10:38:36;98412.92;;;10.11;78.99
50302;BME280;36550;50.472;19.744;2024-02-21T10:41:22;98414.41;;;10.18;78.07
50302;BME280;36550;50.472;19.744;2024-02-21T10:44:09;98416.54;;;10.29;77.97
50302;BME280;36550;50.472;19.744;2024-02-21T10:46:55;98416.79;;;10.35;75.78
50302;BME280;36550;50.472;19.744;2024-02-21T10:49:41;98409.73;;;10.41;77.07
50302;BME280;36550;50.472;19.744;2024-02-21T10:55:56;98403.64;;;10.07;76.69
50302;BME280;36550;50.472;19.744;2024-02-21T10:58:42;98394.58;;;9.90;75.79
50302;BME280;36550;50.472;19.744;2024-02-21T11:01:28;98388.31;;;9.74;76.58
50302;BME280;36550;50.472;19.744;2024-02-21T11:04:13;98380.77;;;9.62;76.15
50302;BME280;36550;50.472;19.744;2024-02-21T11:06:58;98379.86;;;9.54;76.00
50302;BME280;36550;50.472;19.744;2024-02-21T11:09:50;98374.63;;;9.61;76.61
50302;BME280;36550;50.472;19.744;2024-02-21T11:12:36;98370.12;;;9.74;77.26
50302;BME280;36550;50.472;19.744;2024-02-21T11:15:25;98369.21;;;9.83;76.31
50302;BME280;36550;50.472;19.744;2024-02-21T11:18:10;98365.05;;;9.84;75.54
50302;BME280;36550;50.472;19.744;2024-02-21T11:20:55;98362.77;;;9.87;76.11
50302;BME280;36550;50.472;19.744;2024-02-21T11:23:39;98355.63;;;9.89;76.02
50302;BME280;36550;50.472;19.744;2024-02-21T11:26:28;98353.08;;;9.93;76.69
50302;BME280;36550;50.472;19.744;2024-02-21T11:29:23;98353.34;;;10.01;76.86
50302;BME280;36550;50.472;19.744;2024-02-21T11:32:09;98349.86;;;10.02;76.65
50302;BME280;36550;50.472;19.744;2024-02-21T11:37:38;98341.83;;;10.08;76.22
50302;BME280;36550;50.472;19.744;2024-02-21T11:40:22;98339.41;;;10.09;76.23
50302;BME280;36550;50.472;19.744;2024-02-21T11:43:07;98333.96;;;10.13;75.60
50302;BME280;36550;50.472;19.744;2024-02-21T11:46:01;98329.84;;;10.15;75.81
50302;BME280;36550;50.472;19.744;2024-02-21T11:48:45;98330.85;;;10.11;73.94
50302;BME280;36550;50.472;19.744;2024-02-21T11:51:34;98326.41;;;10.11;73.54
50302;BME280;36550;50.472;19.744;2024-02-21T11:54:18;98324.36;;;10.05;73.58
50302;BME280;36550;50.472;19.744;2024-02-21T11:57:05;98325.35;;;9.97;72.87
50302;BME280;36550;50.472;19.744;2024-02-21T11:59:51;98323.87;;;9.87;73.15
50302;BME280;36550;50.472;19.744;2024-02-21T12:02:36;98325.09;;;9.83;73.98
50302;BME280;36550;50.472;19.744;2024-02-21T12:05:20;98320.18;;;9.87;73.89
50302;BME280;36550;50.472;19.744;2024-02-21T12:08:05;98315.77;;;9.84;73.47
50302;BME280;36550;50.472;19.744;2024-02-21T12:10:49;98312.91;;;9.83;73.31
50302;BME280;36550;50.472;19.744;2024-02-21T12:13:35;98307.98;;;9.85;73.59
50302;BME280;36550;50.472;19.744;2024-02-21T12:16:19;98302.64;;;9.88;72.68
50302;BME280;36550;50.472;19.744;2024-02-21T12:19:05;98302.19;;;9.76;72.20
50302;BME280;36550;50.472;19.744;2024-02-21T12:21:49;98305.20;;;9.61;72.69
50302;BME280;36550;50.472;19.744;2024-02-21T12:24:38;98307.90;;;9.49;73.19
50302;BME280;36550;50.472;19.744;2024-02-21T12:27:23;98304.75;;;9.35;73.14
50302;BME280;36550;50.472;19.744;2024-02-21T12:30:08;98306.09;;;9.29;73.59
50302;BME280;36550;50.472;19.744;2024-02-21T12:32:53;98302.19;;;9.26;73.61
50302;BME280;36550;50.472;19.744;2024-02-21T12:35:38;98293.59;;;9.27;73.83
50302;BME280;36550;50.472;19.744;2024-02-21T12:38:21;98289.16;;;9.27;74.04
50302;BME280;36550;50.472;19.744;2024-02-21T12:41:06;98289.00;;;9.23;74.12
50302;BME280;36550;50.472;19.744;2024-02-21T12:43:51;98284.58;;;9.19;74.19
50302;BME280;36550;50.472;19.744;2024-02-21T12:46:35;98285.23;;;9.14;74.29
50302;BME280;36550;50.472;19.744;2024-02-21T12:49:19;98276.64;;;9.11;74.50
50302;BME280;36550;50.472;19.744;2024-02-21T12:52:04;98279.92;;;9.02;75.04
50302;BME280;36550;50.472;19.744;2024-02-21T12:54:48;98279.64;;;9.02;75.28
50302;BME280;36550;50.472;19.744;2024-02-21T12:57:34;98277.32;;;9.07;75.33
50302;BME280;36550;50.472;19.744;2024-02-21T13:00:19;98275.17;;;9.14;75.75
50302;BME280;36550;50.472;19.744;2024-02-21T13:03:04;98274.23;;;9.19;75.62
50302;BME280;36550;50.472;19.744;2024-02-21T13:05:49;98269.27;;;9.22;75.80
50302;BME280;36550;50.472;19.744;2024-02-21T13:08:33;98265.44;;;9.18;75.78
50302;BME280;36550;50.472;19.744;2024-02-21T13:11:19;98264.66;;;9.16;76.22
50302;BME280;36550;50.472;19.744;2024-02-21T13:14:03;98263.23;;;9.21;76.46
50302;BME280;36550;50.472;19.744;2024-02-21T13:16:47;98264.77;;;9.32;76.72
50302;BME280;36550;50.472;19.744;2024-02-21T13:19:32;98261.73;;;9.43;76.77
50302;BME280;36550;50.472;19.744;2024-02-21T13:22:15;98259.88;;;9.46;76.42
50302;BME280;36550;50.472;19.744;2024-02-21T13:25:00;98258.92;;;9.36;75.98
50302;BME280;36550;50.472;19.744;2024-02-21T13:27:45;98253.50;;;9.24;75.94
50302;BME280;36550;50.472;19.744;2024-02-21T13:30:29;98252.12;;;9.06;75.99
50302;BME280;36550;50.472;19.744;2024-02-21T13:33:14;98250.94;;;8.96;76.41
50302;BME280;36550;50.472;19.744;2024-02-21T13:35:58;98245.63;;;8.88;76.63
50302;BME280;36550;50.472;19.744;2024-02-21T13:38:42;98237.81;;;8.77;76.81
50302;BME280;36550;50.472;19.744;2024-02-21T13:41:27;98238.39;;;8.66;77.08
50302;BME280;36550;50.472;19.744;2024-02-21T13:44:11;98233.46;;;8.60;77.26
50302;BME280;36550;50.472;19.744;2024-02-21T13:46:56;98229.20;;;8.55;77.47
50302;BME280;36550;50.472;19.744;2024-02-21T13:49:41;98224.95;;;8.54;77.78
50302;BME280;36550;50.472;19.744;2024-02-21T13:52:25;98223.42;;;8.54;77.99
50302;BME280;36550;50.472;19.744;2024-02-21T13:55:12;98225.61;;;8.51;78.29
50302;BME280;36550;50.472;19.744;2024-02-21T13:57:56;98223.06;;;8.48;78.51
50302;BME280;36550;50.472;19.744;2024-02-21T14:00:41;98224.65;;;8.46;78.54
50302;BME280;36550;50.472;19.744;2024-02-21T14:03:25;98226.70;;;8.39;78.57
50302;BME280;36550;50.472;19.744;2024-02-21T14:06:10;98220.95;;;8.34;78.75
50302;BME280;36550;50.472;19.744;2024-02-21T14:08:54;98220.38;;;8.30;78.93
50302;BME280;36550;50.472;19.744;2024-02-21T14:11:39;98215.67;;;8.30;79.16
50302;BME280;36550;50.472;19.744;2024-02-21T14:14:25;98218.37;;;8.29;79.18
50302;BME280;36550;50.472;19.744;2024-02-21T14:17:09;98216.41;;;8.28;79.34
50302;BME280;36550;50.472;19.744;2024-02-21T14:19:53;98208.88;;;8.28;79.50
50302;BME280;36550;50.472;19.744;2024-02-21T14:22:37;98207.00;;;8.27;79.51
50302;BME280;36550;50.472;19.744;2024-02-21T14:25:21;98211.14;;;8.24;79.69
50302;BME280;36550;50.472;19.744;2024-02-21T14:28:05;98201.84;;;8.19;79.59
50302;BME280;36550;50.472;19.744;2024-02-21T14:30:49;98198.06;;;8.14;79.69
50302;BME280;36550;50.472;19.744;2024-02-21T14:33:37;98195.37;;;8.13;79.81
50302;BME280;36550;50.472;19.744;2024-02-21T14:36:21;98192.68;;;8.15;80.09
50302;BME280;36550;50.472;19.744;2024-02-21T14:39:07;98191.50;;;8.16;80.07
50302;BME280;36550;50.472;19.744;2024-02-21T14:41:51;98182.27;;;8.14;80.10
50302;BME280;36550;50.472;19.744;2024-02-21T14:44:36;98178.28;;;8.13;80.26